createdAt,value
2023-03-11T00:00:27.794Z,11.05
2023-03-11T00:03:01.242Z,11.08
2023-03-11T00:05:31.557Z,11.08
2023-03-11T00:08:00.427Z,11.09
2023-03-11T00:10:32.480Z,11.12
2023-03-11T00:13:01.291Z,11.14
2023-03-11T00:15:30.108Z,11.13
2023-03-11T00:17:58.795Z,11.19
2023-03-11T00:20:29.284Z,11.25
2023-03-11T00:22:58.012Z,11.28
2023-03-11T00:25:28.156Z,11.40
2023-03-11T00:27:58.323Z,11.37
2023-03-11T00:30:27.426Z,11.33
2023-03-11T00:32:57.526Z,11.42
2023-03-11T00:35:27.839Z,11.30
2023-03-11T00:37:57.590Z,11.34
2023-03-11T00:40:27.859Z,11.29
2023-03-11T00:42:57.583Z,11.26
2023-03-11T00:45:26.468Z,11.17
2023-03-11T00:47:56.041Z,10.96
2023-03-11T00:50:26.121Z,10.70
2023-03-11T00:52:54.227Z,10.65
2023-03-11T00:55:24.728Z,10.80
2023-03-11T00:57:54.777Z,10.97
2023-03-11T01:00:26.152Z,11.14
2023-03-11T01:02:55.258Z,11.26
2023-03-11T01:05:26.005Z,11.38
2023-03-11T01:07:54.044Z,11.31
2023-03-11T01:10:22.554Z,11.11
2023-03-11T01:12:50.617Z,11.10
2023-03-11T01:15:22.580Z,11.22
2023-03-11T01:17:52.618Z,11.42
2023-03-11T01:20:21.195Z,11.53
2023-03-11T01:22:49.260Z,11.58
2023-03-11T01:25:20.277Z,11.63
2023-03-11T01:27:48.717Z,11.60
2023-03-11T01:30:19.526Z,11.57
2023-03-11T01:32:47.545Z,11.66
2023-03-11T01:35:19.913Z,11.60
2023-03-11T01:37:48.093Z,11.63
2023-03-11T01:40:20.949Z,11.47
2023-03-11T01:42:48.952Z,11.47
2023-03-11T01:45:34.876Z,11.43
2023-03-11T01:48:03.983Z,11.44
2023-03-11T01:50:37.316Z,11.45
2023-03-11T01:53:06.205Z,11.48
2023-03-11T01:55:34.616Z,11.37
2023-03-11T01:58:06.581Z,11.34
2023-03-11T02:00:35.417Z,11.44
2023-03-11T02:03:10.479Z,11.33
2023-03-11T02:05:41.424Z,11.21
2023-03-11T02:08:09.538Z,11.30
2023-03-11T02:10:39.680Z,11.27
2023-03-11T02:13:07.954Z,11.28
2023-03-11T02:15:37.765Z,11.20
2023-03-11T02:18:08.826Z,11.20
2023-03-11T02:20:45.978Z,11.30
2023-03-11T02:23:15.904Z,11.38
2023-03-11T02:25:52.206Z,11.48
2023-03-11T02:28:23.207Z,11.55
2023-03-11T02:30:52.590Z,11.62
2023-03-11T02:33:21.349Z,11.62
2023-03-11T02:35:49.347Z,11.67
2023-03-11T02:38:17.363Z,11.67
2023-03-11T02:40:53.845Z,11.63
2023-03-11T02:43:28.977Z,11.70
2023-03-11T02:45:58.561Z,11.69
2023-03-11T02:48:27.331Z,11.59
2023-03-11T02:50:55.334Z,11.63
2023-03-11T02:53:23.724Z,11.60
2023-03-11T02:55:51.722Z,11.51
2023-03-11T02:58:19.947Z,11.47
2023-03-11T03:00:49.736Z,11.37
2023-03-11T03:03:17.775Z,11.29
2023-03-11T03:05:46.101Z,11.32
2023-03-11T03:08:14.257Z,11.42
2023-03-11T03:10:42.238Z,11.56
2023-03-11T03:13:10.481Z,11.60
2023-03-11T03:15:38.792Z,11.46
2023-03-11T03:18:08.255Z,11.54
2023-03-11T03:20:36.216Z,11.57
2023-03-11T03:23:04.263Z,11.45
2023-03-11T03:25:32.268Z,11.30
2023-03-11T03:28:00.397Z,11.54
2023-03-11T03:30:30.398Z,11.58
2023-03-11T03:32:58.330Z,11.58
2023-03-11T03:35:28.532Z,11.47
2023-03-11T03:37:56.589Z,11.37
2023-03-11T03:40:24.653Z,11.57
2023-03-11T03:42:52.635Z,11.66
2023-03-11T03:45:23.007Z,11.69
2023-03-11T03:47:51.068Z,11.73
2023-03-11T03:50:19.303Z,11.61
2023-03-11T03:52:49.246Z,11.46
2023-03-11T03:55:17.491Z,11.19
2023-03-11T03:57:45.454Z,11.31
2023-03-11T04:00:14.731Z,11.35
2023-03-11T04:02:42.922Z,11.54
2023-03-11T04:05:11.690Z,11.66
2023-03-11T04:07:39.627Z,11.73
2023-03-11T04:10:10.897Z,11.75
2023-03-11T04:12:38.892Z,11.81
2023-03-11T04:15:09.567Z,11.85
2023-03-11T04:17:38.291Z,11.83
2023-03-11T04:20:09.246Z,11.62
2023-03-11T04:22:37.460Z,11.64
2023-03-11T04:25:05.965Z,11.72
2023-03-11T04:27:35.477Z,11.63
2023-03-11T04:30:03.650Z,11.64
2023-03-11T04:32:32.087Z,11.53
2023-03-11T04:35:00.181Z,11.58
2023-03-11T04:37:29.500Z,11.61
2023-03-11T04:39:57.473Z,11.41
2023-03-11T04:42:25.452Z,11.38
2023-03-11T04:44:54.777Z,11.44
2023-03-11T04:47:22.786Z,11.54
2023-03-11T04:49:50.758Z,11.55
2023-03-11T04:52:18.998Z,11.73
2023-03-11T04:54:47.262Z,11.72
2023-03-11T04:57:15.280Z,11.86
2023-03-11T04:59:43.695Z,11.94
2023-03-11T05:02:13.122Z,11.93
2023-03-11T05:04:41.127Z,11.93
2023-03-11T05:07:09.355Z,12.03
2023-03-11T05:09:37.320Z,12.02
2023-03-11T05:12:06.013Z,12.07
2023-03-11T05:14:34.012Z,12.09
2023-03-11T05:17:01.925Z,12.14
2023-03-11T05:19:35.422Z,12.15
2023-03-11T05:22:04.555Z,12.06
2023-03-11T05:24:32.854Z,12.10
2023-03-11T05:27:01.762Z,12.20
2023-03-11T05:29:30.135Z,12.08
2023-03-11T05:31:58.085Z,12.19
2023-03-11T05:34:26.048Z,12.19
2023-03-11T05:36:55.349Z,12.23
2023-03-11T05:39:23.263Z,12.15
2023-03-11T05:41:51.212Z,12.15
2023-03-11T05:44:19.125Z,12.27
2023-03-11T05:46:47.047Z,12.25
2023-03-11T05:49:15.058Z,12.24
2023-03-11T05:51:43.032Z,12.23
2023-03-11T05:54:15.361Z,12.21
2023-03-11T05:56:44.466Z,12.12
2023-03-11T05:59:16.123Z,12.06
2023-03-11T06:01:45.130Z,12.10
2023-03-11T06:04:13.294Z,12.07
2023-03-11T06:06:42.375Z,12.01
2023-03-11T06:09:13.802Z,12.01
2023-03-11T06:11:43.329Z,11.94
2023-03-11T06:14:12.921Z,12.04
2023-03-11T06:16:41.048Z,12.08
2023-03-11T06:19:09.172Z,12.08
2023-03-11T06:21:37.274Z,12.18
2023-03-11T06:24:05.758Z,12.21
2023-03-11T06:26:35.104Z,12.18
2023-03-11T06:29:03.698Z,11.92
2023-03-11T06:31:31.903Z,11.93
2023-03-11T06:34:00.020Z,11.93
2023-03-11T06:36:28.725Z,11.97
2023-03-11T06:38:56.887Z,11.95
2023-03-11T06:41:25.070Z,12.03
2023-03-11T06:43:55.021Z,12.05
2023-03-11T06:46:24.374Z,12.13
2023-03-11T06:48:53.112Z,12.19
2023-03-11T06:51:22.228Z,12.33
2023-03-11T06:53:51.967Z,12.17
2023-03-11T06:56:20.964Z,12.27
2023-03-11T06:58:49.388Z,12.40
2023-03-11T07:01:20.452Z,12.48
2023-03-11T07:03:49.680Z,12.45
2023-03-11T07:06:19.655Z,12.45
2023-03-11T07:08:48.491Z,12.54
2023-03-11T07:11:19.088Z,12.66
2023-03-11T07:13:47.556Z,12.57
2023-03-11T07:16:17.140Z,12.74
2023-03-11T07:18:48.607Z,12.84
2023-03-11T07:21:19.014Z,13.09
2023-03-11T07:23:48.989Z,13.06
2023-03-11T07:26:18.061Z,13.17
2023-03-11T07:28:46.161Z,13.02
2023-03-11T07:31:19.971Z,13.13
2023-03-11T07:33:49.340Z,13.28
2023-03-11T07:36:19.880Z,13.37
2023-03-11T07:38:48.710Z,13.71
2023-03-11T07:41:17.184Z,13.79
2023-03-11T07:43:45.488Z,13.97
2023-03-11T07:46:16.724Z,14.25
2023-03-11T07:48:44.762Z,14.60
2023-03-11T07:51:16.558Z,14.77
2023-03-11T07:53:44.778Z,14.83
2023-03-11T07:56:14.108Z,14.84
2023-03-11T07:58:45.259Z,14.89
2023-03-11T08:01:16.200Z,15.08
2023-03-11T08:03:44.761Z,15.06
2023-03-11T08:06:18.888Z,15.29
2023-03-11T08:08:47.205Z,15.30
2023-03-11T08:11:16.097Z,15.55
2023-03-11T08:13:45.905Z,15.66
2023-03-11T08:16:15.397Z,15.76
2023-03-11T08:18:43.610Z,15.74
2023-03-11T08:21:14.766Z,15.96
2023-03-11T08:23:44.619Z,15.72
2023-03-11T08:26:16.883Z,15.57
2023-03-11T08:28:44.931Z,15.60
2023-03-11T08:31:17.113Z,15.69
2023-03-11T08:33:47.236Z,15.49
2023-03-11T08:36:15.395Z,15.61
2023-03-11T08:38:44.735Z,15.61
2023-03-11T08:41:12.812Z,15.55
2023-03-11T08:43:42.373Z,15.50
2023-03-11T08:46:15.130Z,15.44
2023-03-11T08:48:43.069Z,15.38
2023-03-11T08:51:12.457Z,15.38
2023-03-11T08:53:40.471Z,15.35
2023-03-11T08:56:10.561Z,15.14
2023-03-11T08:58:38.542Z,15.18
2023-03-11T09:01:07.123Z,15.08
2023-03-11T09:03:36.451Z,15.17
2023-03-11T09:06:06.956Z,15.27
2023-03-11T09:08:35.308Z,15.44
2023-03-11T09:11:03.435Z,15.52
2023-03-11T09:13:33.144Z,15.59
2023-03-11T09:16:01.174Z,15.84
2023-03-11T09:18:29.431Z,15.99
2023-03-11T09:20:58.524Z,16.16
2023-03-11T09:23:26.503Z,16.30
2023-03-11T09:25:54.428Z,16.55
2023-03-11T09:28:22.408Z,16.72
2023-03-11T09:30:51.883Z,16.51
2023-03-11T09:33:19.890Z,16.40
2023-03-11T09:35:47.840Z,16.41
2023-03-11T09:38:15.792Z,16.35
2023-03-11T09:40:53.708Z,16.52
2023-03-11T09:43:32.179Z,16.60
2023-03-11T09:46:17.022Z,16.92
2023-03-11T09:48:50.155Z,16.90
2023-03-11T09:51:27.037Z,16.93
2023-03-11T09:54:00.310Z,16.82
2023-03-11T09:56:28.988Z,16.44
2023-03-11T09:59:01.159Z,16.42
2023-03-11T10:01:33.351Z,16.48
2023-03-11T10:04:09.933Z,16.67
2023-03-11T10:06:39.128Z,16.62
2023-03-11T10:09:22.364Z,16.74
2023-03-11T10:12:04.437Z,16.67
2023-03-11T10:14:45.129Z,16.64
2023-03-11T10:17:30.553Z,16.74
2023-03-11T10:20:06.531Z,16.88
2023-03-11T10:22:42.289Z,17.10
2023-03-11T10:25:15.877Z,17.19
2023-03-11T10:27:49.575Z,17.59
2023-03-11T10:30:25.866Z,17.49
2023-03-11T10:32:59.480Z,17.73
2023-03-11T10:35:34.664Z,17.47
2023-03-11T10:38:13.046Z,17.18
2023-03-11T10:40:43.006Z,16.86
2023-03-11T10:43:14.438Z,16.88
2023-03-11T10:45:45.020Z,16.80
2023-03-11T10:48:16.092Z,16.91
2023-03-11T10:50:50.950Z,17.02
2023-03-11T10:53:20.998Z,16.87
2023-03-11T10:55:50.567Z,16.73
2023-03-11T10:58:20.893Z,16.59
2023-03-11T11:01:01.812Z,16.70
2023-03-11T11:03:32.034Z,16.94
2023-03-11T11:06:02.484Z,16.71
2023-03-11T11:08:30.683Z,17.11
2023-03-11T11:11:00.282Z,17.01
2023-03-11T11:13:31.391Z,16.58
2023-03-11T11:16:01.946Z,16.76
2023-03-11T11:18:34.684Z,16.93
2023-03-11T11:21:06.605Z,16.97
2023-03-11T11:23:40.475Z,17.12
2023-03-11T11:26:09.962Z,17.21
2023-03-11T11:28:37.903Z,17.27
2023-03-11T11:31:20.203Z,17.45
2023-03-11T11:33:53.600Z,17.59
2023-03-11T11:36:24.458Z,17.67
2023-03-11T11:38:54.134Z,17.56
2023-03-11T11:41:24.735Z,17.69
2023-03-11T11:43:54.990Z,17.64
2023-03-11T11:46:28.096Z,17.51
2023-03-11T11:49:12.546Z,17.28
2023-03-11T11:51:45.831Z,17.28
2023-03-11T11:54:19.567Z,17.16
2023-03-11T11:56:47.831Z,16.78
2023-03-11T11:59:20.274Z,17.11
2023-03-11T12:01:58.651Z,16.82
2023-03-11T12:04:45.585Z,16.69
2023-03-11T12:07:26.370Z,16.46
2023-03-11T12:10:12.879Z,16.54
2023-03-11T12:13:01.747Z,16.65
2023-03-11T12:15:33.415Z,16.74
2023-03-11T12:18:05.855Z,16.64
2023-03-11T12:20:41.888Z,16.57
2023-03-11T12:23:19.173Z,16.37
2023-03-11T12:25:59.868Z,16.63
2023-03-11T12:28:38.045Z,16.73
2023-03-11T12:31:10.260Z,16.81
2023-03-11T12:33:41.312Z,16.74
2023-03-11T12:36:24.629Z,16.86
2023-03-11T12:38:54.503Z,16.92
2023-03-11T12:41:32.051Z,16.94
2023-03-11T12:44:05.718Z,17.00
2023-03-11T12:47:10.337Z,17.17
2023-03-11T12:49:40.749Z,17.15
2023-03-11T12:52:29.273Z,17.03
2023-03-11T12:55:30.321Z,17.17
2023-03-11T12:58:07.214Z,16.87
2023-03-11T13:00:49.848Z,16.68
2023-03-11T13:03:50.589Z,16.89
2023-03-11T13:06:39.149Z,16.79
2023-03-11T13:09:15.653Z,16.61
2023-03-11T13:11:46.185Z,16.73
2023-03-11T13:14:35.222Z,16.53
2023-03-11T13:17:28.379Z,16.78
2023-03-11T13:19:57.532Z,16.87
2023-03-11T13:23:06.616Z,16.96
2023-03-11T13:25:42.859Z,16.92
2023-03-11T13:28:42.071Z,16.90
2023-03-11T13:31:29.525Z,16.81
2023-03-11T13:34:00.989Z,16.95
2023-03-11T13:36:43.526Z,17.04
2023-03-11T13:39:32.818Z,17.19
2023-03-11T13:42:04.790Z,17.17
2023-03-11T13:44:37.899Z,17.05
2023-03-11T13:47:11.049Z,16.95
2023-03-11T13:49:43.559Z,17.06
2023-03-11T13:52:17.295Z,17.06
2023-03-11T13:54:49.156Z,17.05
2023-03-11T13:57:26.685Z,17.00
2023-03-11T13:59:55.627Z,16.41
2023-03-11T14:02:26.504Z,16.57
2023-03-11T14:04:58.270Z,16.62
2023-03-11T14:07:29.639Z,16.70
2023-03-11T14:10:24.637Z,16.61
2023-03-11T14:13:05.524Z,16.53
2023-03-11T14:15:44.464Z,16.54
2023-03-11T14:18:33.681Z,16.55
2023-03-11T14:21:02.662Z,16.43
2023-03-11T14:23:34.282Z,16.50
2023-03-11T14:26:05.747Z,16.16
2023-03-11T14:28:39.116Z,16.14
2023-03-11T14:31:07.472Z,16.08
2023-03-11T14:33:35.417Z,16.02
2023-03-11T14:36:06.005Z,16.05
2023-03-11T14:38:34.381Z,16.05
2023-03-11T14:41:05.560Z,15.84
2023-03-11T14:43:38.666Z,15.72
2023-03-11T14:46:08.234Z,15.64
2023-03-11T14:48:40.182Z,15.66
2023-03-11T14:51:15.730Z,15.67
2023-03-11T14:53:47.929Z,15.44
2023-03-11T14:56:21.258Z,15.44
2023-03-11T14:59:07.035Z,15.37
2023-03-11T15:01:40.666Z,15.35
2023-03-11T15:04:13.320Z,15.31
2023-03-11T15:06:44.267Z,15.38
2023-03-11T15:09:14.445Z,15.22
2023-03-11T15:11:47.401Z,15.21
2023-03-11T15:14:23.083Z,15.05
2023-03-11T15:16:52.211Z,15.05
2023-03-11T15:19:25.375Z,15.05
2023-03-11T15:21:55.307Z,15.04
2023-03-11T15:24:27.543Z,14.76
2023-03-11T15:26:58.495Z,14.76
2023-03-11T15:29:28.563Z,14.81
2023-03-11T15:31:57.342Z,14.75
2023-03-11T15:34:29.162Z,14.72
2023-03-11T15:37:03.169Z,14.52
2023-03-11T15:39:43.900Z,14.47
2023-03-11T15:42:24.517Z,14.42
2023-03-11T15:45:16.956Z,14.43
2023-03-11T15:47:45.647Z,14.37
2023-03-11T15:50:25.197Z,14.26
2023-03-11T15:52:55.952Z,14.21
2023-03-11T15:55:24.305Z,14.10
2023-03-11T15:57:55.075Z,14.12
2023-03-11T16:00:25.485Z,14.03
2023-03-11T16:02:54.604Z,14.07
2023-03-11T16:05:24.017Z,13.85
2023-03-11T16:07:52.524Z,13.84
2023-03-11T16:10:22.548Z,13.63
2023-03-11T16:12:50.512Z,13.50
2023-03-11T16:15:25.066Z,13.46
2023-03-11T16:17:56.305Z,13.29
2023-03-11T16:20:25.991Z,13.18
2023-03-11T16:22:56.312Z,12.87
2023-03-11T16:25:27.420Z,12.82
2023-03-11T16:27:57.600Z,12.69
2023-03-11T16:30:27.200Z,12.80
2023-03-11T16:32:56.717Z,12.76
2023-03-11T16:35:25.314Z,12.51
2023-03-11T16:37:53.499Z,12.29
2023-03-11T16:40:25.338Z,12.33
2023-03-11T16:42:56.778Z,12.37
2023-03-11T16:45:25.522Z,12.46
2023-03-11T16:47:53.563Z,12.27
2023-03-11T16:50:24.346Z,12.26
2023-03-11T16:52:52.579Z,12.12
2023-03-11T16:55:20.818Z,12.12
2023-03-11T16:57:49.184Z,12.05
2023-03-11T17:00:18.240Z,12.06
2023-03-11T17:02:46.254Z,12.02
2023-03-11T17:05:14.512Z,11.99
2023-03-11T17:07:44.276Z,11.86
2023-03-11T17:10:13.438Z,11.78
2023-03-11T17:12:41.359Z,11.73
2023-03-11T17:15:10.201Z,11.69
2023-03-11T17:17:38.151Z,11.72
2023-03-11T17:20:07.761Z,11.59
2023-03-11T17:22:35.877Z,11.43
2023-03-11T17:25:06.299Z,11.39
2023-03-11T17:27:34.209Z,11.48
2023-03-11T17:30:03.186Z,11.42
2023-03-11T17:32:31.736Z,11.31
2023-03-11T17:34:59.759Z,11.44
2023-03-11T17:37:27.755Z,11.33
2023-03-11T17:39:55.691Z,11.49
2023-03-11T17:42:25.522Z,11.44
2023-03-11T17:44:56.935Z,11.30
2023-03-11T17:47:26.288Z,11.28
2023-03-11T17:49:54.486Z,11.15
2023-03-11T17:52:22.541Z,10.93
2023-03-11T17:54:51.896Z,11.06
2023-03-11T17:57:19.963Z,10.92
2023-03-11T17:59:53.102Z,10.70
2023-03-11T18:02:21.756Z,10.63
2023-03-11T18:04:53.979Z,10.43
2023-03-11T18:07:23.730Z,10.42
2023-03-11T18:09:52.770Z,10.43
2023-03-11T18:12:21.419Z,10.21
2023-03-11T18:14:49.483Z,9.98
2023-03-11T18:17:19.776Z,10.00
2023-03-11T18:19:47.699Z,9.85
2023-03-11T18:22:16.370Z,9.59
2023-03-11T18:24:45.498Z,9.48
2023-03-11T18:27:13.467Z,9.45
2023-03-11T18:29:41.564Z,9.39
2023-03-11T18:32:09.559Z,9.22
2023-03-11T18:34:39.317Z,9.15
2023-03-11T18:37:07.390Z,8.93
2023-03-11T18:39:35.505Z,8.86
2023-03-11T18:42:04.651Z,8.81
2023-03-11T18:44:32.606Z,8.62
2023-03-11T18:47:00.657Z,8.50
2023-03-11T18:49:29.433Z,8.54
2023-03-11T18:51:59.197Z,8.45
2023-03-11T18:54:27.312Z,8.52
2023-03-11T18:56:55.255Z,8.53
2023-03-11T18:59:23.221Z,8.56
2023-03-11T19:01:51.390Z,8.44
2023-03-11T19:04:19.365Z,8.38
2023-03-11T19:06:47.579Z,8.31
2023-03-11T19:09:18.400Z,8.15
2023-03-11T19:11:46.484Z,8.06
2023-03-11T19:14:14.540Z,7.74
2023-03-11T19:16:42.573Z,8.12
2023-03-11T19:19:11.924Z,8.05
2023-03-11T19:21:40.276Z,7.95
2023-03-11T19:24:08.275Z,7.86
2023-03-11T19:26:46.610Z,7.84
2023-03-11T19:29:15.164Z,7.81
2023-03-11T19:31:44.103Z,7.87
2023-03-11T19:34:12.183Z,7.79
2023-03-11T19:36:40.620Z,7.58
2023-03-11T19:39:08.937Z,7.50
2023-03-11T19:41:38.346Z,7.48
2023-03-11T19:44:06.436Z,7.49
2023-03-11T19:46:34.925Z,7.49
2023-03-11T19:49:03.482Z,7.47
2023-03-11T19:51:46.372Z,7.41
2023-03-11T19:54:17.198Z,7.25
2023-03-11T19:56:46.799Z,7.22
2023-03-11T19:59:15.018Z,7.19
2023-03-11T20:01:43.435Z,7.18
2023-03-11T20:04:11.857Z,6.87
2023-03-11T20:06:39.970Z,6.96
2023-03-11T20:09:08.094Z,6.88
2023-03-11T20:11:39.710Z,6.91
2023-03-11T20:14:11.062Z,6.99
2023-03-11T20:16:39.406Z,6.92
2023-03-11T20:19:08.021Z,6.70
2023-03-11T20:21:39.308Z,6.65
2023-03-11T20:24:08.524Z,6.72
2023-03-11T20:26:37.521Z,6.61
2023-03-11T20:29:05.861Z,6.61
2023-03-11T20:31:36.540Z,6.67
2023-03-11T20:34:05.000Z,6.65
2023-03-11T20:36:34.163Z,6.37
2023-03-11T20:39:02.474Z,6.38
2023-03-11T20:41:35.927Z,6.47
2023-03-11T20:44:04.246Z,6.48
2023-03-11T20:46:33.991Z,6.42
2023-03-11T20:49:04.121Z,6.43
2023-03-11T20:51:32.137Z,5.99
2023-03-11T20:54:00.198Z,6.35
2023-03-11T20:56:28.597Z,6.32
2023-03-11T20:58:59.285Z,6.24
2023-03-11T21:01:29.756Z,6.15
2023-03-11T21:03:59.322Z,6.22
2023-03-11T21:06:30.460Z,6.10
2023-03-11T21:09:01.644Z,6.02
2023-03-11T21:11:30.282Z,6.17
2023-03-11T21:13:58.749Z,6.08
2023-03-11T21:16:28.231Z,6.04
2023-03-11T21:18:56.506Z,5.98
2023-03-11T21:21:25.642Z,5.96
2023-03-11T21:23:55.420Z,5.88
2023-03-11T21:26:23.557Z,5.82
2023-03-11T21:28:51.514Z,5.76
2023-03-11T21:31:21.577Z,5.45
2023-03-11T21:33:53.522Z,5.52
2023-03-11T21:36:21.725Z,5.47
2023-03-11T21:38:50.395Z,5.51
2023-03-11T21:41:21.403Z,5.53
2023-03-11T21:43:49.693Z,5.45
2023-03-11T21:46:20.331Z,5.27
2023-03-11T21:48:49.200Z,5.26
2023-03-11T21:51:18.914Z,5.35
2023-03-11T21:53:47.269Z,5.29
2023-03-11T21:56:15.788Z,5.19
2023-03-11T21:58:45.420Z,5.32
2023-03-11T22:01:13.957Z,5.34
2023-03-11T22:03:41.969Z,5.17
2023-03-11T22:06:11.952Z,5.16
2023-03-11T22:08:40.284Z,5.24
2023-03-11T22:11:09.980Z,5.27
2023-03-11T22:13:38.067Z,5.26
2023-03-11T22:16:08.832Z,5.19
2023-03-11T22:18:38.498Z,4.99
2023-03-11T22:21:09.960Z,5.02
2023-03-11T22:23:38.334Z,5.13
2023-03-11T22:26:06.327Z,5.11
2023-03-11T22:28:34.480Z,5.06
2023-03-11T22:31:08.963Z,5.04
2023-03-11T22:33:36.983Z,5.01
2023-03-11T22:36:05.978Z,5.06
2023-03-11T22:38:34.280Z,5.07
2023-03-11T22:41:04.920Z,4.98
2023-03-11T22:43:32.841Z,5.03
2023-03-11T22:46:02.333Z,5.06
2023-03-11T22:48:31.845Z,4.81
2023-03-11T22:50:59.961Z,4.98
2023-03-11T22:53:28.200Z,4.96
2023-03-11T22:55:56.154Z,4.80
2023-03-11T22:58:24.091Z,4.91
2023-03-11T23:00:52.050Z,5.05
2023-03-11T23:03:20.088Z,5.01
2023-03-11T23:05:49.432Z,4.89
2023-03-11T23:08:17.683Z,4.97
2023-03-11T23:10:47.756Z,4.77
2023-03-11T23:13:16.369Z,4.89
2023-03-11T23:15:45.863Z,4.82
2023-03-11T23:18:15.608Z,4.93
2023-03-11T23:20:44.613Z,4.79
2023-03-11T23:23:14.827Z,4.90
2023-03-11T23:25:43.017Z,4.62
2023-03-11T23:28:10.940Z,4.74
2023-03-11T23:30:40.624Z,4.76
2023-03-11T23:33:08.589Z,4.75
2023-03-11T23:35:41.303Z,4.75
2023-03-11T23:38:10.201Z,4.78
2023-03-11T23:40:41.679Z,4.81
2023-03-11T23:43:09.617Z,4.72
2023-03-11T23:45:37.537Z,4.87
2023-03-11T23:48:05.676Z,4.76
2023-03-11T23:50:33.571Z,4.73
2023-03-11T23:53:01.508Z,4.62
2023-03-11T23:55:29.446Z,4.78
2023-03-11T23:57:58.737Z,4.76
